Time;durP1;ratioP1;P1;durP2;ratioP2;P2;SDS_P1;SDS_P2;PMS_P1;PMS_P2;Temp;Humidity;BMP_temperature;BMP_pressure;BME280_temperature;BME280_humidity;BME280_pressure;Samples;Min_cycle;Max_cycle;Signal;HPM_P1;HPM_P2
2023/01/16 00:02:12;;;;;;;;;;;1.40;99.90;;;;;;5073896;28;20018;-72
2023/01/16 00:04:43;;;;;;;;;;;1.50;99.90;;;;;;5094778;28;19931;-72
2023/01/16 00:07:12;;;;;;;;;;;1.50;99.90;;;;;;5075191;28;19927;-72
2023/01/16 00:09:42;;;;;;;;;;;1.50;99.90;;;;;;5089219;27;20436;-73
2023/01/16 00:12:12;;;;;;;;;;;1.50;99.90;;;;;;5083752;27;19924;-72
2023/01/16 00:14:45;;;;;;;;;;;1.60;99.90;;;;;;5089623;28;19923;-72
2023/01/16 00:17:16;;;;;;;;;;;1.60;99.90;;;;;;5100277;28;19974;-72
2023/01/16 00:19:48;;;;;;;;;;;1.60;99.90;;;;;;5085149;28;19924;-72
2023/01/16 00:22:20;;;;;;;;;;;1.60;99.90;;;;;;5098526;27;20014;-73
2023/01/16 00:24:52;;;;;;;;;;;1.60;99.90;;;;;;5103341;28;19924;-73
2023/01/16 00:27:24;;;;;;;;;;;1.70;99.90;;;;;;5100778;28;19930;-73
2023/01/16 00:29:55;;;;;;;;;;;1.80;99.90;;;;;;5081615;28;19981;-72
2023/01/16 00:32:27;;;;;;;;;;;1.80;99.90;;;;;;5102392;28;19924;-73
2023/01/16 00:34:59;;;;;;;;;;;1.80;99.90;;;;;;5098420;28;19928;-73
2023/01/16 00:37:31;;;;;;;;;;;1.80;99.90;;;;;;5098868;28;19923;-73
2023/01/16 00:40:03;;;;;;;;;;;1.80;99.90;;;;;;5095665;28;19979;-73
2023/01/16 00:42:35;;;;;;;;;;;1.80;99.90;;;;;;5100593;28;19928;-72
2023/01/16 00:45:07;;;;;;;;;;;1.80;99.90;;;;;;5103964;28;19978;-73
2023/01/16 00:47:39;;;;;;;;;;;1.80;99.90;;;;;;5102582;28;19924;-73
2023/01/16 00:50:11;;;;;;;;;;;1.80;99.90;;;;;;5098702;28;19927;-73
2023/01/16 00:52:43;;;;;;;;;;;1.70;99.90;;;;;;5100826;28;19931;-73
2023/01/16 00:55:15;;;;;;;;;;;1.70;99.90;;;;;;5096572;28;19982;-73
2023/01/16 00:57:47;;;;;;;;;;;1.70;99.90;;;;;;5098410;28;19931;-73
2023/01/16 01:00:14;;;;;;;;;;;1.70;99.90;;;;;;5092137;28;19923;-74
2023/01/16 01:02:47;;;;;;;;;;;1.70;99.90;;;;;;5102944;28;19960;-73
2023/01/16 01:05:18;;;;;;;;;;;1.70;99.90;;;;;;5105552;28;19955;-73
2023/01/16 01:07:50;;;;;;;;;;;1.90;99.90;;;;;;5079015;28;19971;-73
2023/01/16 01:10:22;;;;;;;;;;;2.00;99.90;;;;;;5083141;28;19950;-72
2023/01/16 01:12:54;;;;;;;;;;;1.90;99.90;;;;;;5096512;28;19931;-73
2023/01/16 01:15:26;;;;;;;;;;;2.00;99.90;;;;;;5100805;28;19989;-72
2023/01/16 01:17:58;;;;;;;;;;;2.00;99.90;;;;;;5107467;28;19931;-73
2023/01/16 01:20:30;;;;;;;;;;;2.00;99.90;;;;;;5094643;28;19946;-74
2023/01/16 01:23:02;;;;;;;;;;;2.00;99.90;;;;;;5102643;28;19928;-73
2023/01/16 01:25:37;;;;;;;;;;;1.90;99.90;;;;;;5093247;28;20070;-73
2023/01/16 01:28:08;;;;;;;;;;;1.90;99.90;;;;;;5089433;28;20019;-73
2023/01/16 01:30:40;;;;;;;;;;;1.90;99.90;;;;;;5091320;28;20326;-73
2023/01/16 01:33:12;;;;;;;;;;;1.90;99.90;;;;;;5101507;28;19953;-73
2023/01/16 01:35:44;;;;;;;;;;;1.90;99.90;;;;;;5100631;28;19977;-73
2023/01/16 01:38:16;;;;;;;;;;;1.90;99.90;;;;;;5105836;28;19928;-72
2023/01/16 01:40:48;;;;;;;;;;;2.00;99.90;;;;;;5097924;28;19928;-73
2023/01/16 01:43:20;;;;;;;;;;;2.00;99.90;;;;;;5094691;28;19979;-72
2023/01/16 01:45:53;;;;;;;;;;;2.00;99.90;;;;;;5102647;28;20448;-73
2023/01/16 01:48:28;;;;;;;;;;;1.90;99.90;;;;;;5094100;28;19978;-73
2023/01/16 01:51:02;;;;;;;;;;;1.90;99.90;;;;;;5093048;28;19934;-73
2023/01/16 01:53:31;;;;;;;;;;;1.90;99.90;;;;;;5095688;28;19924;-72
2023/01/16 01:56:23;;;;;;;;;;;1.90;99.90;;;;;;5106872;28;19996;-73
2023/01/16 01:59:00;;;;;;;;;;;1.90;99.90;;;;;;5099964;28;20047;-72
2023/01/16 02:01:32;;;;;;;;;;;2.00;99.90;;;;;;5080380;28;19974;-73
2023/01/16 02:04:07;;;;;;;;;;;2.00;99.90;;;;;;5101874;28;19925;-73
2023/01/16 02:06:45;;;;;;;;;;;1.90;99.90;;;;;;5104620;28;20341;-73
2023/01/16 02:09:17;;;;;;;;;;;1.90;99.90;;;;;;5093361;28;19932;-73
2023/01/16 02:11:57;;;;;;;;;;;1.80;99.90;;;;;;5080683;28;19927;-72
2023/01/16 02:14:31;;;;;;;;;;;1.80;99.90;;;;;;5099129;28;19963;-73
2023/01/16 02:20:08;;;;;;;;;;;1.80;99.90;;;;;;5102369;28;19943;-73
2023/01/16 02:22:58;;;;;;;;;;;1.80;99.90;;;;;;5099119;28;20502;-72
2023/01/16 02:25:49;;;;;;;;;;;1.80;99.90;;;;;;5094198;28;19963;-72
2023/01/16 02:28:30;;;;;;;;;;;1.80;99.90;;;;;;5089987;28;19994;-73
2023/01/16 02:31:08;;;;;;;;;;;1.80;99.90;;;;;;5093162;28;20386;-73
2023/01/16 02:33:40;;;;;;;;;;;1.70;99.90;;;;;;5080614;28;19924;-73
2023/01/16 02:36:26;;;;;;;;;;;1.80;99.90;;;;;;5104997;28;19954;-73
2023/01/16 02:39:16;;;;;;;;;;;1.70;99.90;;;;;;5105085;28;20316;-73
2023/01/16 02:41:54;;;;;;;;;;;1.70;99.90;;;;;;5097121;28;20038;-73
2023/01/16 02:44:36;;;;;;;;;;;1.70;99.90;;;;;;5096549;28;19930;-72
2023/01/16 02:47:15;;;;;;;;;;;1.60;99.90;;;;;;5098280;28;19924;-73
2023/01/16 02:50:02;;;;;;;;;;;1.60;99.90;;;;;;5097358;28;19924;-73
2023/01/16 02:52:46;;;;;;;;;;;1.60;99.90;;;;;;5098600;28;20018;-72
2023/01/16 02:55:20;;;;;;;;;;;1.60;99.90;;;;;;5096893;28;19924;-73
2023/01/16 02:57:56;;;;;;;;;;;1.60;99.90;;;;;;5101221;28;19924;-73
2023/01/16 03:00:29;;;;;;;;;;;1.60;99.90;;;;;;5103058;28;19935;-73
2023/01/16 03:03:00;;;;;;;;;;;1.60;99.90;;;;;;5102659;28;19931;-73
2023/01/16 03:05:41;;;;;;;;;;;1.60;99.90;;;;;;5097096;28;20038;-73
2023/01/16 03:08:27;;;;;;;;;;;1.50;99.90;;;;;;5098718;28;19935;-73
2023/01/16 03:11:01;;;;;;;;;;;1.50;99.90;;;;;;5099222;28;19924;-73
2023/01/16 03:13:43;;;;;;;;;;;1.60;99.90;;;;;;5103078;28;19935;-73
2023/01/16 03:16:21;;;;;;;;;;;1.60;99.90;;;;;;5095662;28;19924;-73
2023/01/16 03:19:11;;;;;;;;;;;1.50;99.90;;;;;;5100379;28;19924;-72
2023/01/16 03:22:04;;;;;;;;;;;1.50;99.90;;;;;;5106243;28;20459;-73
2023/01/16 03:24:44;;;;;;;;;;;1.50;99.90;;;;;;5101306;28;19924;-73
2023/01/16 03:27:22;;;;;;;;;;;1.60;99.90;;;;;;5096533;28;19924;-73
2023/01/16 03:29:59;;;;;;;;;;;1.60;99.90;;;;;;5106303;28;19930;-73
2023/01/16 03:32:36;;;;;;;;;;;1.50;99.90;;;;;;5101276;28;19969;-73
2023/01/16 03:35:19;;;;;;;;;;;1.50;99.90;;;;;;5104685;28;19977;-73
2023/01/16 03:37:54;;;;;;;;;;;1.50;99.90;;;;;;5101566;28;19930;-73
2023/01/16 03:40:27;;;;;;;;;;;1.50;99.90;;;;;;5101879;28;19923;-72
2023/01/16 03:43:02;;;;;;;;;;;1.50;99.90;;;;;;5089643;28;19928;-72
2023/01/16 03:45:42;;;;;;;;;;;1.50;99.90;;;;;;5091883;28;19932;-72
2023/01/16 03:48:13;;;;;;;;;;;1.40;99.90;;;;;;5069043;28;19928;-72
2023/01/16 03:50:48;;;;;;;;;;;1.40;99.90;;;;;;5099810;28;19982;-72
2023/01/16 03:53:23;;;;;;;;;;;1.40;99.90;;;;;;5105528;28;19927;-73
2023/01/16 03:56:07;;;;;;;;;;;1.40;99.90;;;;;;5092514;28;19928;-72
2023/01/16 03:58:40;;;;;;;;;;;1.40;99.90;;;;;;5091606;28;19946;-73
2023/01/16 04:01:31;;;;;;;;;;;1.40;99.90;;;;;;5068754;28;20425;-72
2023/01/16 04:04:08;;;;;;;;;;;1.40;99.90;;;;;;5094742;28;20391;-72
2023/01/16 04:06:46;;;;;;;;;;;1.40;99.90;;;;;;5074298;28;20461;-72
2023/01/16 04:09:36;;;;;;;;;;;1.40;99.90;;;;;;5101450;28;19923;-72
2023/01/16 04:12:10;;;;;;;;;;;1.40;99.90;;;;;;5091087;28;20045;-72
2023/01/16 04:14:42;;;;;;;;;;;1.40;99.90;;;;;;5067311;28;19971;-72
2023/01/16 04:17:09;;;;;;;;;;;1.30;99.90;;;;;;5064667;28;19928;-72
2023/01/16 04:19:41;;;;;;;;;;;1.30;99.90;;;;;;5082247;28;19931;-72
2023/01/16 04:22:20;;;;;;;;;;;1.20;99.90;;;;;;5070446;28;19985;-72
2023/01/16 04:24:53;;;;;;;;;;;1.20;99.90;;;;;;5085200;28;19973;-72
2023/01/16 04:27:20;;;;;;;;;;;1.10;99.90;;;;;;5084085;28;19924;-72
2023/01/16 04:29:47;;;;;;;;;;;1.10;99.90;;;;;;5103468;28;19924;-72
2023/01/16 04:32:19;;;;;;;;;;;1.10;99.90;;;;;;5094102;28;19947;-72
2023/01/16 04:34:51;;;;;;;;;;;1.10;99.90;;;;;;5084459;28;19924;-72
2023/01/16 04:37:23;;;;;;;;;;;1.10;99.90;;;;;;5079602;28;19924;-73
2023/01/16 04:39:55;;;;;;;;;;;1.10;99.90;;;;;;5083278;28;20436;-72
2023/01/16 04:42:27;;;;;;;;;;;1.00;99.90;;;;;;5092628;28;20297;-73
2023/01/16 04:44:59;;;;;;;;;;;1.00;99.90;;;;;;5093449;28;19977;-73
2023/01/16 04:47:30;;;;;;;;;;;1.00;99.90;;;;;;5097804;28;19974;-72
2023/01/16 04:50:03;;;;;;;;;;;1.00;99.90;;;;;;5100919;28;20406;-72
2023/01/16 04:52:34;;;;;;;;;;;1.00;99.90;;;;;;5108751;28;19950;-72
2023/01/16 04:55:01;;;;;;;;;;;1.10;99.90;;;;;;5110758;28;19923;-72
2023/01/16 04:57:33;;;;;;;;;;;1.10;99.90;;;;;;5082075;28;19924;-72
2023/01/16 05:00:00;;;;;;;;;;;1.10;99.90;;;;;;5099288;28;19935;-73
2023/01/16 05:02:32;;;;;;;;;;;1.10;99.90;;;;;;5102477;28;19924;-72
2023/01/16 05:05:04;;;;;;;;;;;1.10;99.90;;;;;;5103792;28;19971;-72
2023/01/16 05:07:35;;;;;;;;;;;1.00;99.90;;;;;;5083126;28;20026;-72
2023/01/16 05:10:08;;;;;;;;;;;1.00;99.90;;;;;;5106349;28;19928;-72
2023/01/16 05:12:40;;;;;;;;;;;0.90;99.90;;;;;;5081910;28;19928;-73
2023/01/16 05:15:12;;;;;;;;;;;0.90;99.90;;;;;;5095900;28;19924;-72
2023/01/16 05:17:45;;;;;;;;;;;0.90;99.90;;;;;;5083812;28;19924;-72
2023/01/16 05:20:17;;;;;;;;;;;0.90;99.90;;;;;;5086230;28;20072;-72
2023/01/16 05:22:49;;;;;;;;;;;0.90;99.90;;;;;;5067792;28;19924;-71
2023/01/16 05:25:20;;;;;;;;;;;0.90;99.90;;;;;;5100599;28;19928;-73
2023/01/16 05:27:52;;;;;;;;;;;0.90;99.90;;;;;;5109215;28;19931;-72
2023/01/16 05:30:25;;;;;;;;;;;0.90;99.90;;;;;;5102861;28;19924;-71
2023/01/16 05:32:56;;;;;;;;;;;0.90;99.90;;;;;;5071868;28;19931;-72
2023/01/16 05:35:25;;;;;;;;;;;0.80;99.90;;;;;;5079724;28;19932;-72
2023/01/16 05:37:56;;;;;;;;;;;0.90;99.90;;;;;;5093898;28;19924;-71
2023/01/16 05:40:26;;;;;;;;;;;0.80;99.90;;;;;;5075646;28;19923;-71
2023/01/16 05:42:55;;;;;;;;;;;0.80;99.90;;;;;;5089329;28;19977;-72
2023/01/16 05:45:23;;;;;;;;;;;0.80;99.90;;;;;;5090007;28;19924;-72
2023/01/16 05:47:51;;;;;;;;;;;0.70;99.90;;;;;;5075742;28;20306;-72
2023/01/16 05:50:22;;;;;;;;;;;0.60;99.90;;;;;;5073830;28;19932;-72
2023/01/16 05:52:52;;;;;;;;;;;0.70;99.90;;;;;;5085898;28;19924;-71
2023/01/16 05:55:22;;;;;;;;;;;0.70;99.90;;;;;;5087438;28;20337;-72
2023/01/16 05:57:51;;;;;;;;;;;0.70;99.90;;;;;;5101062;28;19977;-75
2023/01/16 06:00:20;;;;;;;;;;;0.60;99.90;;;;;;5070601;28;19977;-72
2023/01/16 06:02:51;;;;;;;;;;;0.50;99.90;;;;;;5082920;28;19931;-72
2023/01/16 06:05:20;;;;;;;;;;;0.50;99.90;;;;;;5087989;28;19924;-72
2023/01/16 06:07:58;;;;;;;;;;;0.40;99.90;;;;;;5089698;28;20220;-72
2023/01/16 06:10:27;;;;;;;;;;;0.40;99.90;;;;;;5088698;28;19932;-72
2023/01/16 06:12:56;;;;;;;;;;;0.40;99.90;;;;;;5076300;28;20314;-72
2023/01/16 06:15:25;;;;;;;;;;;0.40;99.90;;;;;;5067753;28;19947;-72
2023/01/16 06:17:57;;;;;;;;;;;0.40;99.90;;;;;;5078499;28;20406;-72
2023/01/16 06:20:25;;;;;;;;;;;0.30;99.90;;;;;;5094992;28;19963;-72
2023/01/16 06:22:56;;;;;;;;;;;0.30;99.90;;;;;;5109659;28;19924;-72
2023/01/16 06:25:25;;;;;;;;;;;0.30;99.90;;;;;;5075188;28;19928;-72
2023/01/16 06:27:54;;;;;;;;;;;0.20;99.90;;;;;;5058961;28;19931;-72
2023/01/16 06:30:23;;;;;;;;;;;0.20;99.90;;;;;;5085439;28;20523;-72
2023/01/16 06:32:53;;;;;;;;;;;0.20;99.90;;;;;;5079086;28;19924;-73
2023/01/16 06:35:22;;;;;;;;;;;0.20;99.90;;;;;;5091347;28;19923;-72
2023/01/16 06:37:52;;;;;;;;;;;0.10;99.90;;;;;;5074831;28;19924;-73
2023/01/16 06:40:25;;;;;;;;;;;0.10;99.90;;;;;;5095390;28;20371;-73
2023/01/16 06:42:54;;;;;;;;;;;0.10;99.90;;;;;;5067087;28;20015;-72
2023/01/16 06:45:24;;;;;;;;;;;0.10;99.90;;;;;;5058838;28;19924;-72
2023/01/16 06:47:53;;;;;;;;;;;0.20;99.90;;;;;;5059809;28;19924;-72
2023/01/16 06:50:22;;;;;;;;;;;0.20;99.90;;;;;;5082571;28;19924;-72
2023/01/16 06:52:53;;;;;;;;;;;0.30;99.90;;;;;;5069805;28;19959;-72
2023/01/16 06:55:30;;;;;;;;;;;0.30;99.90;;;;;;5096195;28;20015;-73
2023/01/16 06:58:01;;;;;;;;;;;0.30;99.90;;;;;;5095712;28;19924;-72
2023/01/16 07:00:31;;;;;;;;;;;0.30;99.90;;;;;;5084951;28;19923;-72
2023/01/16 07:03:00;;;;;;;;;;;0.30;99.90;;;;;;5098252;27;19956;-72
2023/01/16 07:05:30;;;;;;;;;;;0.30;99.90;;;;;;5062000;28;19924;-72
2023/01/16 07:07:59;;;;;;;;;;;0.30;99.90;;;;;;5071221;28;19931;-72
2023/01/16 07:10:29;;;;;;;;;;;0.30;99.90;;;;;;5077982;28;19947;-72
2023/01/16 07:13:01;;;;;;;;;;;0.40;99.90;;;;;;5078150;28;19924;-72
2023/01/16 07:24:06;;;;;;;;;;;0.30;99.90;;;;;;5092530;28;19935;-72
2023/01/16 07:26:39;;;;;;;;;;;0.30;99.90;;;;;;5100427;28;20423;-72
2023/01/16 07:29:11;;;;;;;;;;;0.30;99.90;;;;;;5086250;28;19924;-72
2023/01/16 07:31:43;;;;;;;;;;;0.20;99.90;;;;;;5089737;28;19977;-72
2023/01/16 07:34:14;;;;;;;;;;;0.30;99.90;;;;;;5103817;28;20464;-71
2023/01/16 07:36:46;;;;;;;;;;;0.30;99.90;;;;;;5079803;28;19928;-71
2023/01/16 07:39:17;;;;;;;;;;;0.20;99.90;;;;;;5091461;28;19924;-71
2023/01/16 07:41:50;;;;;;;;;;;0.20;99.90;;;;;;5068851;28;19994;-71
2023/01/16 07:44:22;;;;;;;;;;;0.20;99.90;;;;;;5088403;28;19950;-72
2023/01/16 07:46:54;;;;;;;;;;;0.20;99.90;;;;;;5094038;28;19973;-72
2023/01/16 07:49:26;;;;;;;;;;;0.20;99.90;;;;;;5108162;28;19954;-72
2023/01/16 07:51:57;;;;;;;;;;;0.20;99.90;;;;;;5113227;28;20382;-72
2023/01/16 07:54:29;;;;;;;;;;;0.30;99.90;;;;;;5098815;28;20299;-72
2023/01/16 07:56:55;;;;;;;;;;;0.20;99.90;;;;;;5084684;28;20394;-72
2023/01/16 07:59:27;;;;;;;;;;;0.20;99.90;;;;;;5097127;28;19931;-73
2023/01/16 08:01:58;;;;;;;;;;;0.30;99.90;;;;;;5093221;28;19931;-73
2023/01/16 08:04:30;;;;;;;;;;;0.40;99.90;;;;;;5105976;28;19957;-72
2023/01/16 08:07:01;;;;;;;;;;;0.40;99.90;;;;;;5097134;28;19924;-72
2023/01/16 08:09:33;;;;;;;;;;;0.50;99.90;;;;;;5100128;28;19927;-72
2023/01/16 08:12:05;;;;;;;;;;;0.60;99.90;;;;;;5067984;28;19977;-72
2023/01/16 08:14:38;;;;;;;;;;;0.60;99.90;;;;;;5082666;28;19981;-73
2023/01/16 08:17:05;;;;;;;;;;;0.70;99.90;;;;;;5081151;28;19928;-72
2023/01/16 08:19:37;;;;;;;;;;;0.80;99.90;;;;;;5089267;28;19935;-72
2023/01/16 08:22:08;;;;;;;;;;;0.80;99.90;;;;;;5100991;28;19924;-72
2023/01/16 08:24:40;;;;;;;;;;;0.90;99.90;;;;;;5090392;28;19969;-72
2023/01/16 08:27:11;;;;;;;;;;;1.00;99.90;;;;;;5093424;28;19972;-72
2023/01/16 08:29:38;;;;;;;;;;;1.00;99.90;;;;;;5092704;28;20301;-72
2023/01/16 08:32:10;;;;;;;;;;;1.10;99.90;;;;;;5101928;28;19946;-72
2023/01/16 08:34:41;;;;;;;;;;;1.20;99.90;;;;;;5084689;28;19928;-72
2023/01/16 08:37:10;;;;;;;;;;;1.20;99.90;;;;;;5106455;28;20427;-72
2023/01/16 08:39:41;;;;;;;;;;;1.20;99.90;;;;;;5106006;28;19923;-72
2023/01/16 08:53:24;;;;;;;;;;;1.50;99.90;;;;;;5101056;28;19924;-72
2023/01/16 08:55:55;;;;;;;;;;;1.50;99.90;;;;;;5098426;28;19932;-72
2023/01/16 08:58:22;;;;;;;;;;;1.50;99.90;;;;;;5084427;28;19924;-72
2023/01/16 09:00:53;;;;;;;;;;;1.40;99.90;;;;;;5084733;28;20452;-72
2023/01/16 09:03:25;;;;;;;;;;;1.50;99.90;;;;;;5101401;28;19931;-72
2023/01/16 09:05:57;;;;;;;;;;;1.50;99.90;;;;;;5085018;28;19954;-73
2023/01/16 09:08:28;;;;;;;;;;;1.60;99.90;;;;;;5093139;28;19928;-72
2023/01/16 09:13:49;;;;;;;;;;;1.90;99.90;;;;;;5086618;28;20375;-72
2023/01/16 09:16:22;;;;;;;;;;;2.10;99.90;;;;;;5100959;28;20383;-73
2023/01/16 09:18:53;;;;;;;;;;;2.30;99.90;;;;;;5094596;28;19951;-72
2023/01/16 09:21:25;;;;;;;;;;;2.40;99.90;;;;;;5091213;28;19931;-72
2023/01/16 09:23:52;;;;;;;;;;;2.60;99.90;;;;;;5083802;28;19928;-72
2023/01/16 09:26:23;;;;;;;;;;;2.70;99.90;;;;;;5088242;28;19924;-72
2023/01/16 09:28:50;;;;;;;;;;;2.90;99.90;;;;;;5096920;28;19984;-72
2023/01/16 09:31:21;;;;;;;;;;;3.00;99.90;;;;;;5115027;28;19931;-72
2023/01/16 09:33:54;;;;;;;;;;;3.00;99.90;;;;;;5105988;28;19928;-72
2023/01/16 09:36:21;;;;;;;;;;;3.10;99.90;;;;;;5115501;28;19924;-72
2023/01/16 09:38:53;;;;;;;;;;;3.10;99.90;;;;;;5093928;28;19924;-72
2023/01/16 09:44:15;;;;;;;;;;;3.20;99.90;;;;;;5113275;28;19951;-72
2023/01/16 09:46:50;;;;;;;;;;;3.40;99.90;;;;;;5108000;28;20349;-73
2023/01/16 09:49:20;;;;;;;;;;;3.40;99.90;;;;;;5089529;28;19977;-73
2023/01/16 10:00:34;;;;;;;;;;;4.00;99.90;;;;;;5107632;28;19924;-72
2023/01/16 10:03:07;;;;;;;;;;;4.00;99.90;;;;;;5103904;28;19923;-72
2023/01/16 10:05:49;;;;;;;;;;;4.10;99.90;;;;;;5109478;28;19928;-72
2023/01/16 10:08:36;;;;;;;;;;;4.10;99.90;;;;;;5092474;28;19993;-73
2023/01/16 10:11:23;;;;;;;;;;;4.10;99.90;;;;;;5109374;28;19923;-72
2023/01/16 10:14:04;;;;;;;;;;;4.20;99.90;;;;;;5072595;28;20629;-72
2023/01/16 10:16:37;;;;;;;;;;;4.30;99.90;;;;;;5101554;28;19923;-73
2023/01/16 10:19:09;;;;;;;;;;;4.40;99.90;;;;;;5102448;28;19954;-72
2023/01/16 10:21:38;;;;;;;;;;;4.50;99.90;;;;;;5094611;28;19928;-72
2023/01/16 10:24:16;;;;;;;;;;;4.50;99.90;;;;;;5077714;28;19930;-73
2023/01/16 10:26:57;;;;;;;;;;;4.50;99.90;;;;;;5073400;28;19924;-73
2023/01/16 10:29:42;;;;;;;;;;;4.50;99.90;;;;;;5075970;28;19924;-73
2023/01/16 10:32:25;;;;;;;;;;;4.50;99.90;;;;;;5075210;28;19964;-73
2023/01/16 10:35:16;;;;;;;;;;;4.40;99.90;;;;;;5086235;28;20582;-73
2023/01/16 10:37:45;;;;;;;;;;;4.30;99.90;;;;;;5076587;28;20437;-74
2023/01/16 10:40:21;;;;;;;;;;;4.30;99.90;;;;;;5073896;28;20013;-73
2023/01/16 10:51:17;;;;;;;;;;;4.20;99.90;;;;;;5084678;28;19928;-73
2023/01/16 10:53:51;;;;;;;;;;;4.20;99.90;;;;;;5081185;28;20019;-73
2023/01/16 10:56:23;;;;;;;;;;;4.20;99.90;;;;;;5085523;28;20011;-73
2023/01/16 10:58:53;;;;;;;;;;;4.30;99.90;;;;;;5080185;28;19924;-73
2023/01/16 11:01:24;;;;;;;;;;;4.30;99.90;;;;;;5075075;28;19973;-73
2023/01/16 11:03:57;;;;;;;;;;;4.20;99.90;;;;;;5091361;27;20635;-73
2023/01/16 11:06:30;;;;;;;;;;;4.20;99.90;;;;;;5075117;28;19972;-73
2023/01/16 11:09:03;;;;;;;;;;;4.10;99.90;;;;;;5091613;28;20672;-73
2023/01/16 11:20:27;;;;;;;;;;;4.10;99.90;;;;;;5111577;27;20386;-73
2023/01/16 11:23:03;;;;;;;;;;;4.20;99.90;;;;;;5094503;27;20375;-73
2023/01/16 11:25:31;;;;;;;;;;;4.30;99.90;;;;;;5107723;27;19934;-73
2023/01/16 11:28:06;;;;;;;;;;;4.30;99.90;;;;;;5095397;27;19931;-73
2023/01/16 11:30:39;;;;;;;;;;;4.30;99.90;;;;;;5106286;27;19955;-73
2023/01/16 11:33:16;;;;;;;;;;;4.30;99.90;;;;;;5094595;27;19931;-73
2023/01/16 11:35:51;;;;;;;;;;;4.30;99.90;;;;;;5066505;28;20019;-73
2023/01/16 11:38:21;;;;;;;;;;;4.40;99.90;;;;;;5076371;28;20022;-73
2023/01/16 11:40:56;;;;;;;;;;;4.40;99.90;;;;;;5090908;28;20022;-72
2023/01/16 11:47:02;;;;;;;;;;;4.50;99.90;;;;;;5088683;28;20667;-73
2023/01/16 11:49:44;;;;;;;;;;;4.50;99.90;;;;;;5066446;28;19924;-73
2023/01/16 11:52:26;;;;;;;;;;;4.40;99.90;;;;;;5083462;28;19974;-73
2023/01/16 11:55:07;;;;;;;;;;;4.40;99.90;;;;;;5088865;28;19957;-72
2023/01/16 11:57:38;;;;;;;;;;;4.30;99.90;;;;;;5105754;27;20026;-73
2023/01/16 12:00:09;;;;;;;;;;;4.40;99.90;;;;;;5067074;28;19928;-72
2023/01/16 12:03:03;;;;;;;;;;;4.40;99.90;;;;;;5084549;28;19935;-73
2023/01/16 12:05:53;;;;;;;;;;;4.30;99.90;;;;;;5062249;28;19931;-73
2023/01/16 12:08:31;;;;;;;;;;;4.30;99.90;;;;;;5074481;28;19997;-73
2023/01/16 12:11:06;;;;;;;;;;;4.40;99.90;;;;;;5061260;28;19931;-73
2023/01/16 12:16:56;;;;;;;;;;;4.30;99.90;;;;;;5088701;28;19928;-73
2023/01/16 12:19:34;;;;;;;;;;;4.30;99.90;;;;;;5069853;28;19923;-73
2023/01/16 12:22:08;;;;;;;;;;;4.30;99.90;;;;;;5070075;28;19924;-73
2023/01/16 12:24:50;;;;;;;;;;;4.20;99.90;;;;;;5083671;28;20460;-73
2023/01/16 12:27:59;;;;;;;;;;;4.30;99.90;;;;;;5076958;28;19930;-73
2023/01/16 12:30:30;;;;;;;;;;;4.30;99.90;;;;;;5010589;28;19935;-72
2023/01/16 12:33:03;;;;;;;;;;;4.20;99.90;;;;;;5027051;28;19925;-72
2023/01/16 12:35:42;;;;;;;;;;;4.20;99.90;;;;;;5080764;28;19931;-72
2023/01/16 12:38:34;;;;;;;;;;;4.10;99.90;;;;;;5081546;28;20214;-72
2023/01/16 12:43:59;;;;;;;;;;;3.90;99.90;;;;;;5084437;28;20026;-73
2023/01/16 12:46:34;;;;;;;;;;;3.90;99.90;;;;;;5088471;28;20405;-73
2023/01/16 12:49:17;;;;;;;;;;;4.00;99.90;;;;;;5076656;27;19954;-73
2023/01/16 12:51:51;;;;;;;;;;;4.00;99.90;;;;;;5069787;28;20462;-72
2023/01/16 12:54:33;;;;;;;;;;;4.00;99.90;;;;;;5091098;28;20034;-73
2023/01/16 12:57:22;;;;;;;;;;;4.00;99.90;;;;;;5090250;28;19931;-73
2023/01/16 13:00:10;;;;;;;;;;;4.00;99.90;;;;;;5065850;28;20401;-72
2023/01/16 13:02:57;;;;;;;;;;;4.00;99.90;;;;;;5086719;28;19928;-73
2023/01/16 13:05:36;;;;;;;;;;;4.00;99.90;;;;;;5068554;28;20413;-73
2023/01/16 13:08:30;;;;;;;;;;;4.00;99.90;;;;;;5104043;28;19928;-73
2023/01/16 13:14:30;;;;;;;;;;;4.10;99.90;;;;;;5104140;28;19928;-73
2023/01/16 13:17:09;;;;;;;;;;;4.10;99.90;;;;;;5078536;28;19933;-73
2023/01/16 13:19:40;;;;;;;;;;;4.10;99.90;;;;;;5087671;28;20426;-73
2023/01/16 13:22:22;;;;;;;;;;;4.10;99.90;;;;;;5064605;28;19928;-73
2023/01/16 13:25:27;;;;;;;;;;;4.00;99.90;;;;;;5064484;28;19924;-72
2023/01/16 13:28:21;;;;;;;;;;;4.00;99.90;;;;;;5029507;28;19925;-73
2023/01/16 13:30:59;;;;;;;;;;;3.90;99.90;;;;;;5100762;28;19924;-73
2023/01/16 13:33:32;;;;;;;;;;;3.90;99.90;;;;;;5085902;28;19932;-73
2023/01/16 13:36:07;;;;;;;;;;;3.90;99.90;;;;;;5088088;28;19928;-73
2023/01/16 13:39:03;;;;;;;;;;;3.90;99.90;;;;;;5105051;28;19946;-72
2023/01/16 13:41:58;;;;;;;;;;;3.90;99.90;;;;;;5090137;28;19979;-73
2023/01/16 13:47:32;;;;;;;;;;;3.90;99.90;;;;;;5085762;28;19924;-73
2023/01/16 13:50:19;;;;;;;;;;;3.80;99.90;;;;;;5067851;28;20483;-72
2023/01/16 13:53:07;;;;;;;;;;;3.70;99.90;;;;;;5085753;28;19924;-73
2023/01/16 13:55:42;;;;;;;;;;;3.60;99.90;;;;;;5089749;28;19927;-73
2023/01/16 13:58:14;;;;;;;;;;;3.60;99.90;;;;;;5071586;28;19932;-73
2023/01/16 14:00:44;;;;;;;;;;;3.60;99.90;;;;;;5085594;28;20027;-73
2023/01/16 14:03:25;;;;;;;;;;;3.70;99.90;;;;;;5072627;28;19924;-72
2023/01/16 14:06:24;;;;;;;;;;;3.70;99.90;;;;;;5104813;28;19924;-72
2023/01/16 14:09:04;;;;;;;;;;;3.70;99.90;;;;;;5073757;28;20298;-73
2023/01/16 14:11:42;;;;;;;;;;;3.60;99.90;;;;;;5107459;28;20463;-73
2023/01/16 14:17:51;;;;;;;;;;;3.50;99.90;;;;;;5104357;28;19931;-72
2023/01/16 14:20:37;;;;;;;;;;;3.50;99.90;;;;;;5089625;28;20189;-73
2023/01/16 14:25:55;;;;;;;;;;;3.50;99.90;;;;;;5109103;28;19924;-73
2023/01/16 14:28:29;;;;;;;;;;;3.50;99.90;;;;;;5089369;28;20389;-72
2023/01/16 14:31:02;;;;;;;;;;;3.50;99.90;;;;;;5091476;28;19977;-73
2023/01/16 14:33:31;;;;;;;;;;;3.50;99.90;;;;;;5090445;28;19931;-73
2023/01/16 14:36:04;;;;;;;;;;;3.50;99.90;;;;;;5093640;27;19927;-72
2023/01/16 14:38:36;;;;;;;;;;;3.50;99.90;;;;;;5094483;28;19967;-72
2023/01/16 14:55:52;;;;;;;;;;;3.30;99.90;;;;;;5115329;27;20031;-73
2023/01/16 14:58:35;;;;;;;;;;;3.30;99.90;;;;;;5093162;28;20020;-73
2023/01/16 15:02:18;;;;;;;;;;;3.30;99.90;;;;;;5102266;28;19924;-72
2023/01/16 15:04:07;;;;;;;;;;;3.30;99.90;;;;;;5091133;28;19932;-72
2023/01/16 15:06:40;;;;;;;;;;;3.20;99.90;;;;;;5086528;28;19940;-73
2023/01/16 15:09:15;;;;;;;;;;;3.20;99.90;;;;;;5080232;28;19926;-73
2023/01/16 15:11:51;;;;;;;;;;;3.20;99.90;;;;;;5091456;28;20026;-73
2023/01/16 15:14:27;;;;;;;;;;;3.30;99.90;;;;;;5091096;28;19947;-73
2023/01/16 15:23:27;;;;;;;;;;;3.30;99.90;;;;;;5046860;28;19939;-72
2023/01/16 15:26:11;;;;;;;;;;;3.20;99.90;;;;;;5051289;28;19924;-73
2023/01/16 15:28:43;;;;;;;;;;;3.10;99.90;;;;;;5066045;28;19931;-73
2023/01/16 15:31:24;;;;;;;;;;;3.10;99.90;;;;;;5090111;28;19955;-72
2023/01/16 15:34:03;;;;;;;;;;;3.20;99.90;;;;;;5086265;28;19924;-72
2023/01/16 15:36:54;;;;;;;;;;;3.20;99.90;;;;;;5071009;28;19970;-72
2023/01/16 15:39:39;;;;;;;;;;;3.10;99.90;;;;;;5082426;28;19930;-72
2023/01/16 15:48:19;;;;;;;;;;;2.70;99.90;;;;;;5106124;28;19924;-72
2023/01/16 15:50:49;;;;;;;;;;;2.70;99.90;;;;;;5084628;28;20011;-72
2023/01/16 15:53:19;;;;;;;;;;;2.70;99.90;;;;;;5069398;28;20139;-73
2023/01/16 15:55:58;;;;;;;;;;;2.70;99.90;;;;;;5075144;28;19927;-72
2023/01/16 15:58:30;;;;;;;;;;;2.70;99.90;;;;;;5089628;28;19965;-72
2023/01/16 16:01:06;;;;;;;;;;;2.60;99.90;;;;;;5088311;28;19924;-72
2023/01/16 16:03:41;;;;;;;;;;;2.60;99.90;;;;;;5074329;28;19928;-72
2023/01/16 16:06:11;;;;;;;;;;;2.40;99.90;;;;;;5088235;28;19973;-72
2023/01/16 16:08:44;;;;;;;;;;;2.30;99.90;;;;;;5082304;28;19928;-72
2023/01/16 16:20:25;;;;;;;;;;;2.00;99.90;;;;;;5101054;28;20020;-73
2023/01/16 16:22:57;;;;;;;;;;;2.00;99.90;;;;;;5086917;28;19951;-73
2023/01/16 16:25:30;;;;;;;;;;;2.00;99.90;;;;;;5089323;28;19931;-73
2023/01/16 16:27:59;;;;;;;;;;;1.90;99.90;;;;;;5072637;28;19923;-73
2023/01/16 16:30:30;;;;;;;;;;;1.90;99.90;;;;;;5087991;28;19924;-73
2023/01/16 16:33:00;;;;;;;;;;;2.00;99.90;;;;;;5090064;28;20631;-73
2023/01/16 16:35:32;;;;;;;;;;;1.90;99.90;;;;;;5097913;28;19924;-73
2023/01/16 16:38:05;;;;;;;;;;;1.90;99.90;;;;;;5098921;28;19924;-72
2023/01/16 16:40:34;;;;;;;;;;;1.90;99.90;;;;;;5087433;28;19924;-73
2023/01/16 16:43:06;;;;;;;;;;;1.80;99.90;;;;;;5082779;28;19932;-73
2023/01/16 16:45:37;;;;;;;;;;;1.80;99.90;;;;;;5100305;28;19927;-72
2023/01/16 16:48:24;;;;;;;;;;;1.80;99.90;;;;;;5086199;28;19923;-72
2023/01/16 16:51:20;;;;;;;;;;;1.80;99.90;;;;;;5060296;28;20023;-73
2023/01/16 16:53:57;;;;;;;;;;;1.70;99.90;;;;;;5084803;28;20364;-73
2023/01/16 16:56:31;;;;;;;;;;;1.60;99.90;;;;;;5089267;28;20294;-73
2023/01/16 16:59:04;;;;;;;;;;;1.70;99.90;;;;;;5072049;28;19954;-73
2023/01/16 17:01:44;;;;;;;;;;;1.70;99.90;;;;;;5068959;28;19924;-73
2023/01/16 17:04:16;;;;;;;;;;;1.70;99.90;;;;;;5088065;28;20390;-73
2023/01/16 17:06:46;;;;;;;;;;;1.70;99.90;;;;;;5086860;28;19927;-73
2023/01/16 17:09:19;;;;;;;;;;;1.70;99.90;;;;;;5088486;28;20007;-72